createdAt,value
2023-04-06T00:01:09.640Z,5.70
2023-04-06T00:03:36.882Z,4.93
2023-04-06T00:06:04.461Z,4.82
2023-04-06T00:08:31.632Z,6.13
2023-04-06T00:10:58.685Z,6.88
2023-04-06T00:13:25.802Z,5.80
2023-04-06T00:15:55.627Z,5.70
2023-04-06T00:18:23.242Z,5.47
2023-04-06T00:20:52.155Z,4.70
2023-04-06T00:23:19.502Z,5.53
2023-04-06T00:25:46.589Z,5.55
2023-04-06T00:28:13.689Z,6.35
2023-04-06T00:30:42.014Z,5.93
2023-04-06T00:33:09.177Z,5.10
2023-04-06T00:35:36.593Z,6.30
2023-04-06T00:38:03.736Z,4.97
2023-04-06T00:40:32.173Z,4.32
2023-04-06T00:42:59.347Z,4.78
2023-04-06T00:45:26.455Z,5.80
2023-04-06T00:47:53.581Z,5.15
2023-04-06T00:50:20.886Z,5.88
2023-04-06T00:52:48.065Z,6.40
2023-04-06T00:55:15.509Z,4.70
2023-04-06T00:57:42.665Z,5.63
2023-04-06T01:00:10.218Z,4.38
2023-04-06T01:02:37.624Z,4.70
2023-04-06T01:05:05.285Z,4.15
2023-04-06T01:07:32.465Z,5.75
2023-04-06T01:09:59.784Z,3.72
2023-04-06T01:12:26.941Z,4.13
2023-04-06T01:14:54.008Z,4.38
2023-04-06T01:17:21.115Z,3.80
2023-04-06T01:19:50.380Z,4.85
2023-04-06T01:22:18.545Z,5.30
2023-04-06T01:24:46.345Z,3.50
2023-04-06T01:27:17.211Z,3.78
2023-04-06T01:29:44.356Z,4.75
2023-04-06T01:32:11.445Z,5.63
2023-04-06T01:34:38.715Z,5.05
2023-04-06T01:37:05.846Z,4.57
2023-04-06T01:39:33.039Z,4.13
2023-04-06T01:42:00.099Z,3.92
2023-04-06T01:44:27.244Z,3.78
2023-04-06T01:46:54.412Z,3.88
2023-04-06T01:49:21.865Z,3.08
2023-04-06T01:51:48.936Z,4.85
2023-04-06T01:54:16.044Z,4.78
2023-04-06T01:56:43.319Z,5.20
2023-04-06T01:59:10.746Z,4.78
2023-04-06T02:01:38.123Z,4.07
2023-04-06T02:04:05.460Z,2.90
2023-04-06T02:06:32.573Z,4.47
2023-04-06T02:08:59.670Z,4.00
2023-04-06T02:11:26.772Z,4.38
2023-04-06T02:13:53.865Z,3.53
2023-04-06T02:16:20.967Z,4.65
2023-04-06T02:18:48.014Z,4.30
2023-04-06T02:21:15.111Z,4.07
2023-04-06T02:23:42.269Z,3.58
2023-04-06T02:26:09.388Z,3.70
2023-04-06T02:28:36.467Z,4.57
2023-04-06T02:31:03.547Z,3.60
2023-04-06T02:33:30.694Z,3.45
2023-04-06T02:35:57.788Z,3.58
2023-04-06T02:38:24.884Z,4.32
2023-04-06T02:40:51.960Z,5.88
2023-04-06T02:43:20.057Z,3.80
2023-04-06T02:45:47.157Z,5.13
2023-04-06T02:48:15.125Z,3.42
2023-04-06T02:50:42.171Z,2.92
2023-04-06T02:53:09.296Z,3.47
2023-04-06T02:55:36.345Z,3.35
2023-04-06T02:58:03.453Z,4.00
2023-04-06T03:00:30.644Z,4.32
2023-04-06T03:02:57.840Z,4.10
2023-04-06T03:05:25.148Z,2.85
2023-04-06T03:07:52.230Z,3.53
2023-04-06T03:10:19.509Z,3.45
2023-04-06T03:12:46.642Z,3.22
2023-04-06T03:15:13.712Z,3.20
2023-04-06T03:17:40.864Z,3.75
2023-04-06T03:20:08.382Z,2.63
2023-04-06T03:22:35.436Z,3.53
2023-04-06T03:25:03.750Z,3.58
2023-04-06T03:27:31.106Z,3.75
2023-04-06T03:29:58.163Z,3.22
2023-04-06T03:32:25.258Z,4.20
2023-04-06T03:34:52.386Z,3.88
2023-04-06T03:37:19.420Z,3.92
2023-04-06T03:39:46.468Z,2.90
2023-04-06T03:42:13.486Z,3.08
2023-04-06T03:44:40.603Z,3.17
2023-04-06T03:47:07.663Z,3.28
2023-04-06T03:49:34.801Z,3.55
2023-04-06T03:52:02.531Z,3.58
2023-04-06T03:54:29.632Z,4.43
2023-04-06T03:56:56.684Z,2.72
2023-04-06T03:59:23.831Z,2.55
2023-04-06T04:01:51.018Z,3.88
2023-04-06T04:04:18.178Z,5.15
2023-04-06T04:06:45.499Z,3.00
2023-04-06T04:09:12.707Z,3.80
2023-04-06T04:11:39.954Z,3.10
2023-04-06T04:14:07.100Z,3.97
2023-04-06T04:16:34.305Z,2.97
2023-04-06T04:19:01.480Z,4.07
2023-04-06T04:21:32.553Z,3.60
2023-04-06T04:23:59.719Z,3.95
2023-04-06T04:26:26.833Z,3.17
2023-04-06T04:28:53.937Z,2.75
2023-04-06T04:31:23.105Z,3.50
2023-04-06T04:33:50.418Z,3.50
2023-04-06T04:36:17.467Z,4.30
2023-04-06T04:38:44.624Z,5.32
2023-04-06T04:41:11.847Z,3.42
2023-04-06T04:43:39.398Z,4.30
2023-04-06T04:46:06.811Z,3.92
2023-04-06T04:48:33.960Z,3.53
2023-04-06T04:51:01.294Z,3.53
2023-04-06T04:53:28.583Z,2.72
2023-04-06T04:55:55.662Z,3.38
2023-04-06T04:58:22.817Z,3.70
2023-04-06T05:00:49.962Z,3.47
2023-04-06T05:03:24.426Z,3.20
2023-04-06T05:05:51.690Z,6.05
2023-04-06T05:08:18.893Z,3.33
2023-04-06T05:10:46.600Z,3.58
2023-04-06T05:13:13.842Z,2.90
2023-04-06T05:15:41.652Z,3.08
2023-04-06T05:18:10.113Z,3.15
2023-04-06T05:20:37.504Z,2.55
2023-04-06T05:23:04.768Z,2.60
2023-04-06T05:25:32.161Z,3.17
2023-04-06T05:27:59.438Z,5.35
2023-04-06T05:30:27.505Z,4.78
2023-04-06T05:32:54.738Z,3.22
2023-04-06T05:35:21.956Z,4.53
2023-04-06T05:37:49.110Z,3.17
2023-04-06T05:40:16.543Z,4.30
2023-04-06T05:42:44.151Z,4.20
2023-04-06T05:45:12.300Z,5.20
2023-04-06T05:47:39.464Z,6.35
2023-04-06T05:50:07.064Z,3.63
2023-04-06T05:52:34.745Z,4.00
2023-04-06T05:55:02.180Z,6.47
2023-04-06T05:57:29.377Z,5.22
2023-04-06T05:59:56.476Z,2.97
2023-04-06T06:02:23.861Z,2.55
2023-04-06T06:04:51.080Z,5.32
2023-04-06T06:07:18.973Z,2.60
2023-04-06T06:09:46.360Z,3.17
2023-04-06T06:12:14.659Z,3.00
2023-04-06T06:14:41.997Z,3.97
2023-04-06T06:17:09.706Z,3.60
2023-04-06T06:19:37.922Z,2.97
2023-04-06T06:22:06.185Z,3.10
2023-04-06T06:24:33.519Z,3.88
2023-04-06T06:27:00.737Z,3.47
2023-04-06T06:29:27.863Z,6.70
2023-04-06T06:31:56.030Z,3.90
2023-04-06T06:34:23.129Z,3.47
2023-04-06T06:36:51.679Z,3.30
2023-04-06T06:39:20.041Z,2.90
2023-04-06T06:41:47.101Z,5.30
2023-04-06T06:44:14.698Z,3.70
2023-04-06T06:46:43.261Z,2.50
2023-04-06T06:49:13.379Z,3.25
2023-04-06T06:51:40.534Z,3.15
2023-04-06T06:54:08.066Z,2.58
2023-04-06T06:56:37.284Z,2.85
2023-04-06T06:59:04.541Z,3.35
2023-04-06T07:01:36.153Z,3.35
2023-04-06T07:04:03.471Z,2.53
2023-04-06T07:06:30.718Z,3.50
2023-04-06T07:08:57.831Z,2.95
2023-04-06T07:11:24.919Z,3.92
2023-04-06T07:13:52.387Z,2.22
2023-04-06T07:16:19.962Z,3.45
2023-04-06T07:18:47.214Z,5.22
2023-04-06T07:21:14.372Z,4.95
2023-04-06T07:23:41.628Z,4.35
2023-04-06T07:26:08.888Z,3.58
2023-04-06T07:28:36.815Z,3.30
2023-04-06T07:31:04.506Z,4.45
2023-04-06T07:33:31.706Z,5.32
2023-04-06T07:35:59.978Z,2.88
2023-04-06T07:38:27.296Z,5.10
2023-04-06T07:40:55.661Z,3.95
2023-04-06T07:43:22.832Z,5.38
2023-04-06T07:45:50.019Z,3.35
2023-04-06T07:48:17.370Z,4.15
2023-04-06T07:50:44.476Z,4.97
2023-04-06T07:53:12.602Z,4.30
2023-04-06T07:55:39.828Z,3.25
2023-04-06T07:58:07.088Z,3.10
2023-04-06T08:00:34.961Z,4.68
2023-04-06T08:03:02.188Z,3.10
2023-04-06T08:05:29.676Z,4.90
2023-04-06T08:07:56.764Z,3.72
2023-04-06T08:10:23.952Z,5.88
2023-04-06T08:12:51.141Z,5.25
2023-04-06T08:15:19.366Z,4.35
2023-04-06T08:17:46.904Z,4.35
2023-04-06T08:20:14.042Z,4.45
2023-04-06T08:22:41.162Z,3.47
2023-04-06T08:25:08.509Z,3.97
2023-04-06T08:27:35.821Z,6.10
2023-04-06T08:30:03.421Z,4.18
2023-04-06T08:32:30.568Z,5.88
2023-04-06T08:34:57.896Z,3.55
2023-04-06T08:37:26.843Z,5.43
2023-04-06T08:39:54.345Z,5.57
2023-04-06T08:42:23.097Z,7.70
2023-04-06T08:44:52.513Z,3.50
2023-04-06T08:47:23.076Z,3.60
2023-04-06T08:49:52.867Z,4.28
2023-04-06T08:52:20.943Z,3.08
2023-04-06T08:54:49.005Z,5.05
2023-04-06T08:57:17.820Z,4.60
2023-04-06T08:59:46.194Z,3.65
2023-04-06T09:02:19.737Z,4.03
2023-04-06T09:04:49.743Z,3.13
2023-04-06T09:07:17.448Z,4.18
2023-04-06T09:09:48.945Z,3.17
2023-04-06T09:12:28.731Z,6.50
2023-04-06T09:14:57.098Z,2.75
2023-04-06T09:17:33.802Z,6.00
2023-04-06T09:20:03.797Z,8.65
2023-04-06T09:22:38.678Z,10.38
2023-04-06T09:25:06.663Z,3.50
2023-04-06T09:27:36.227Z,5.75
2023-04-06T09:30:15.242Z,3.63
2023-04-06T09:32:49.117Z,4.45
2023-04-06T09:35:16.741Z,5.75
2023-04-06T09:37:48.708Z,3.50
2023-04-06T09:40:18.592Z,5.43
2023-04-06T09:42:48.263Z,2.88
2023-04-06T09:45:15.959Z,4.95
2023-04-06T09:47:47.276Z,5.85
2023-04-06T09:50:16.193Z,3.90
2023-04-06T09:52:51.838Z,4.00
2023-04-06T09:55:26.335Z,7.85
2023-04-06T09:58:03.879Z,2.50
2023-04-06T10:00:33.731Z,5.32
2023-04-06T10:03:22.429Z,3.05
2023-04-06T10:06:01.408Z,4.13
2023-04-06T10:08:32.745Z,2.40
2023-04-06T10:11:02.037Z,2.88
2023-04-06T10:13:30.496Z,3.30
2023-04-06T10:15:58.526Z,3.83
2023-04-06T10:18:26.200Z,2.83
2023-04-06T10:21:06.217Z,4.75
2023-04-06T10:23:56.981Z,4.82
2023-04-06T10:26:24.360Z,3.00
2023-04-06T10:28:52.354Z,3.92
2023-04-06T10:31:27.567Z,4.85
2023-04-06T10:34:03.357Z,4.18
2023-04-06T10:36:34.836Z,2.50
2023-04-06T10:39:04.797Z,2.72
2023-04-06T10:41:47.916Z,3.00
2023-04-06T10:44:25.266Z,2.65
2023-04-06T10:46:58.042Z,3.22
2023-04-06T10:49:27.437Z,4.97
2023-04-06T10:51:58.461Z,3.33
2023-04-06T10:54:28.164Z,2.40
2023-04-06T10:56:57.255Z,5.03
2023-04-06T10:59:26.238Z,3.20
2023-04-06T11:01:54.359Z,2.45
2023-04-06T11:04:22.158Z,1.90
2023-04-06T11:06:51.027Z,2.55
2023-04-06T11:09:27.197Z,2.13
2023-04-06T11:11:55.552Z,3.08
2023-04-06T11:14:22.886Z,6.95
2023-04-06T11:16:51.377Z,9.10
2023-04-06T11:19:18.992Z,2.65
2023-04-06T11:21:48.605Z,2.63
2023-04-06T11:24:29.379Z,5.00
2023-04-06T11:26:58.722Z,5.20
2023-04-06T11:29:29.138Z,2.85
2023-04-06T11:34:31.894Z,1.42
2023-04-06T11:37:01.514Z,4.93
2023-04-06T11:39:30.789Z,4.28
2023-04-06T11:42:08.977Z,2.47
2023-04-06T11:44:44.971Z,3.83
2023-04-06T11:47:13.244Z,1.92
2023-04-06T11:49:43.268Z,3.65
2023-04-06T11:52:22.591Z,3.60
2023-04-06T11:54:52.628Z,4.95
2023-04-06T11:57:21.511Z,1.77
2023-04-06T11:59:48.754Z,1.83
2023-04-06T12:02:16.264Z,3.85
2023-04-06T12:04:43.539Z,2.83
2023-04-06T12:07:10.712Z,6.30
2023-04-06T12:09:38.049Z,2.45
2023-04-06T12:12:05.334Z,2.00
2023-04-06T12:14:32.532Z,2.95
2023-04-06T12:17:00.962Z,4.10
2023-04-06T12:19:28.997Z,2.15
2023-04-06T12:21:58.669Z,4.38
2023-04-06T12:24:26.053Z,4.43
2023-04-06T12:27:02.728Z,2.00
2023-04-06T12:29:36.239Z,2.13
2023-04-06T12:32:03.475Z,1.70
2023-04-06T12:34:30.708Z,3.13
2023-04-06T12:36:58.886Z,6.03
2023-04-06T12:39:26.539Z,3.42
2023-04-06T12:41:54.242Z,2.03
2023-04-06T12:44:21.375Z,3.70
2023-04-06T12:46:48.607Z,2.67
2023-04-06T12:49:17.910Z,4.07
2023-04-06T12:51:44.970Z,5.13
2023-04-06T12:54:13.102Z,1.60
2023-04-06T12:56:40.719Z,1.90
2023-04-06T12:59:08.378Z,3.40
2023-04-06T13:01:36.506Z,3.13
2023-04-06T13:04:03.626Z,2.97
2023-04-06T13:06:31.432Z,2.45
2023-04-06T13:08:58.618Z,3.42
2023-04-06T13:11:28.645Z,1.30
2023-04-06T13:13:56.772Z,2.88
2023-04-06T13:16:23.941Z,1.88
2023-04-06T13:18:51.324Z,2.05
2023-04-06T13:21:18.604Z,2.47
2023-04-06T13:23:45.958Z,2.28
2023-04-06T13:26:14.687Z,1.73
2023-04-06T13:28:42.269Z,1.20
2023-04-06T13:31:10.902Z,2.25
2023-04-06T13:33:38.650Z,3.08
2023-04-06T13:36:07.346Z,1.55
2023-04-06T13:38:34.940Z,2.05
2023-04-06T13:41:02.114Z,2.85
2023-04-06T13:43:29.329Z,1.38
2023-04-06T13:45:59.162Z,1.65
2023-04-06T13:48:29.987Z,1.75
2023-04-06T13:50:57.033Z,3.15
2023-04-06T13:53:24.077Z,1.70
2023-04-06T13:55:55.775Z,1.25
2023-04-06T13:58:23.052Z,1.80
2023-04-06T14:00:50.177Z,1.23
2023-04-06T14:03:17.443Z,2.42
2023-04-06T14:05:44.517Z,2.35
2023-04-06T14:08:11.654Z,3.92
2023-04-06T14:10:41.463Z,1.52
2023-04-06T14:13:08.872Z,1.20
2023-04-06T14:15:36.459Z,1.35
2023-04-06T14:18:03.752Z,1.75
2023-04-06T14:20:33.474Z,3.35
2023-04-06T14:23:04.237Z,1.55
2023-04-06T14:25:33.146Z,1.83
2023-04-06T14:28:00.373Z,0.90
2023-04-06T14:30:29.012Z,1.40
2023-04-06T14:32:59.371Z,1.00
2023-04-06T14:35:29.257Z,1.40
2023-04-06T14:37:59.256Z,1.20
2023-04-06T14:40:26.705Z,1.67
2023-04-06T14:42:53.923Z,0.60
2023-04-06T14:45:22.814Z,1.27
2023-04-06T14:47:50.341Z,2.05
2023-04-06T14:50:17.569Z,1.17
2023-04-06T14:52:47.389Z,2.53
2023-04-06T14:55:15.158Z,1.38
2023-04-06T14:57:42.181Z,3.35
2023-04-06T15:00:10.677Z,1.42
2023-04-06T15:02:38.362Z,1.30
2023-04-06T15:05:06.607Z,1.15
2023-04-06T15:07:33.678Z,1.48
2023-04-06T15:10:00.792Z,2.00
2023-04-06T15:12:27.830Z,0.70
2023-04-06T15:14:57.388Z,0.82
2023-04-06T15:17:27.616Z,0.70
2023-04-06T15:19:55.420Z,1.48
2023-04-06T15:22:22.449Z,1.75
2023-04-06T15:24:49.501Z,0.68
2023-04-06T15:27:16.552Z,0.70
2023-04-06T15:29:43.699Z,2.60
2023-04-06T15:32:10.973Z,1.98
2023-04-06T15:34:38.017Z,0.82
2023-04-06T15:37:05.962Z,1.58
2023-04-06T15:39:36.946Z,0.60
2023-04-06T15:42:04.433Z,1.83
2023-04-06T15:44:31.710Z,1.50
2023-04-06T15:46:58.816Z,1.10
2023-04-06T15:49:25.873Z,0.75
2023-04-06T15:51:53.902Z,3.05
2023-04-06T15:54:21.459Z,1.08
2023-04-06T15:56:49.664Z,1.88
2023-04-06T15:59:17.055Z,0.93
2023-04-06T16:01:44.300Z,0.70
2023-04-06T16:04:13.029Z,0.93
2023-04-06T16:06:40.154Z,0.95
2023-04-06T16:09:07.302Z,1.38
2023-04-06T16:11:34.363Z,2.65
2023-04-06T16:14:01.527Z,0.95
2023-04-06T16:16:29.549Z,0.65
2023-04-06T16:18:56.682Z,0.80
2023-04-06T16:21:23.728Z,2.28
2023-04-06T16:23:50.755Z,0.50
2023-04-06T16:26:18.490Z,0.50
2023-04-06T16:28:47.576Z,0.57
2023-04-06T16:31:22.590Z,0.75
2023-04-06T16:33:54.472Z,1.13
2023-04-06T16:36:32.085Z,1.27
2023-04-06T16:39:01.434Z,0.82
2023-04-06T16:41:29.093Z,0.60
2023-04-06T16:43:57.540Z,0.57
2023-04-06T16:46:32.362Z,0.95
2023-04-06T16:49:04.323Z,0.68
2023-04-06T16:51:34.474Z,0.40
2023-04-06T16:54:02.522Z,0.82
2023-04-06T16:56:29.974Z,0.63
2023-04-06T16:58:57.019Z,0.60
2023-04-06T17:01:26.530Z,0.82
2023-04-06T17:03:54.692Z,0.60
2023-04-06T17:06:22.167Z,0.65
2023-04-06T17:08:49.652Z,0.40
2023-04-06T17:11:20.332Z,0.60
2023-04-06T17:13:50.876Z,0.57
2023-04-06T17:16:19.541Z,0.57
2023-04-06T17:18:46.726Z,0.40
2023-04-06T17:21:17.245Z,0.60
2023-04-06T17:23:44.695Z,0.75
2023-04-06T17:26:13.296Z,0.65
2023-04-06T17:28:40.517Z,0.75
2023-04-06T17:31:10.466Z,0.65
2023-04-06T17:33:38.973Z,1.02
2023-04-06T17:36:08.039Z,0.57
2023-04-06T17:38:35.535Z,0.95
2023-04-06T17:41:07.879Z,0.73
2023-04-06T17:43:34.965Z,0.73
2023-04-06T17:46:02.102Z,0.65
2023-04-06T17:48:29.993Z,0.50
2023-04-06T17:51:00.472Z,0.38
2023-04-06T17:53:30.734Z,0.40
2023-04-06T17:58:25.033Z,0.50
2023-04-06T18:00:52.112Z,0.52
2023-04-06T18:03:19.275Z,0.38
2023-04-06T18:05:46.901Z,0.50
2023-04-06T18:08:14.940Z,0.75
2023-04-06T18:10:45.456Z,0.65
2023-04-06T18:13:12.704Z,0.30
2023-04-06T18:15:39.830Z,0.55
2023-04-06T18:18:08.047Z,0.98
2023-04-06T18:20:40.782Z,0.57
2023-04-06T18:23:07.836Z,0.85
2023-04-06T18:25:39.719Z,4.15
2023-04-06T18:28:09.010Z,0.60
2023-04-06T18:30:36.674Z,0.63
2023-04-06T18:33:04.671Z,0.38
2023-04-06T18:35:31.814Z,0.88
2023-04-06T18:37:59.239Z,1.02
2023-04-06T18:40:36.681Z,0.47
2023-04-06T18:43:09.213Z,1.23
2023-04-06T18:45:39.130Z,0.88
2023-04-06T18:48:07.023Z,0.47
2023-04-06T18:50:34.225Z,0.38
2023-04-06T18:53:01.324Z,0.30
2023-04-06T18:55:28.590Z,0.50
2023-04-06T18:57:55.754Z,0.68
2023-04-06T19:00:22.964Z,0.65
2023-04-06T19:02:51.700Z,0.52
2023-04-06T19:05:19.128Z,0.57
2023-04-06T19:07:52.498Z,0.60
2023-04-06T19:10:21.000Z,0.50
2023-04-06T19:12:48.991Z,0.65
2023-04-06T19:15:16.744Z,0.47
2023-04-06T19:17:43.963Z,0.45
2023-04-06T19:20:11.844Z,0.50
2023-04-06T19:22:39.109Z,0.75
2023-04-06T19:25:07.862Z,1.40
2023-04-06T19:27:34.986Z,0.60
2023-04-06T19:30:02.280Z,0.57
2023-04-06T19:32:30.355Z,0.85
2023-04-06T19:34:59.811Z,0.75
2023-04-06T19:37:27.018Z,0.50
2023-04-06T19:39:54.254Z,0.40
2023-04-06T19:42:21.932Z,0.47
2023-04-06T19:44:49.208Z,1.85
2023-04-06T19:47:16.731Z,0.70
2023-04-06T19:49:44.109Z,1.00
2023-04-06T19:52:11.917Z,0.70
2023-04-06T19:54:40.156Z,0.65
2023-04-06T19:57:08.297Z,0.60
2023-04-06T19:59:35.485Z,0.40
2023-04-06T20:02:04.021Z,0.35
2023-04-06T20:04:31.495Z,0.60
2023-04-06T20:06:58.630Z,0.50
2023-04-06T20:09:25.821Z,0.38
2023-04-06T20:11:54.388Z,0.90
2023-04-06T20:14:22.605Z,1.55
2023-04-06T20:16:50.853Z,0.85
2023-04-06T20:19:18.277Z,0.88
2023-04-06T20:21:46.874Z,0.40
2023-04-06T20:24:14.180Z,0.60
2023-04-06T20:26:41.428Z,0.85
2023-04-06T20:29:08.557Z,0.70
2023-04-06T20:31:35.668Z,0.32
2023-04-06T20:34:03.536Z,0.50
2023-04-06T20:36:34.477Z,0.55
2023-04-06T20:39:01.530Z,0.40
2023-04-06T20:41:28.617Z,2.53
2023-04-06T20:43:55.624Z,0.43
2023-04-06T20:46:22.825Z,0.50
2023-04-06T20:48:50.760Z,0.77
2023-04-06T20:51:20.045Z,0.73
2023-04-06T20:53:47.275Z,0.70
2023-04-06T20:56:14.892Z,1.15
2023-04-06T20:58:42.534Z,1.15
2023-04-06T21:01:14.977Z,0.52
2023-04-06T21:03:42.902Z,1.40
2023-04-06T21:06:10.692Z,0.77
2023-04-06T21:08:38.397Z,0.50
2023-04-06T21:11:06.490Z,1.15
2023-04-06T21:13:34.488Z,0.63
2023-04-06T21:16:03.212Z,0.50
2023-04-06T21:18:31.813Z,0.52
2023-04-06T21:20:59.424Z,0.60
2023-04-06T21:23:26.567Z,0.75
2023-04-06T21:25:57.149Z,0.73
2023-04-06T21:28:27.895Z,0.60
2023-04-06T21:30:55.663Z,1.02
2023-04-06T21:33:23.156Z,0.68
2023-04-06T21:35:50.340Z,0.77
2023-04-06T21:38:17.421Z,0.63
2023-04-06T21:40:44.975Z,1.20
2023-04-06T21:43:12.049Z,1.45
2023-04-06T21:45:39.374Z,0.50
2023-04-06T21:48:07.140Z,0.80
2023-04-06T21:50:38.874Z,0.52
2023-04-06T21:53:06.029Z,0.60
2023-04-06T21:55:33.110Z,0.75
2023-04-06T21:58:00.176Z,1.13
2023-04-06T22:00:27.312Z,1.05
2023-04-06T22:02:55.731Z,0.52
2023-04-06T22:05:23.641Z,2.40
2023-04-06T22:07:50.712Z,0.85
2023-04-06T22:10:17.847Z,0.88
2023-04-06T22:12:44.932Z,1.65
2023-04-06T22:15:13.285Z,1.75
2023-04-06T22:17:40.664Z,1.08
2023-04-06T22:20:08.184Z,1.75
2023-04-06T22:22:35.605Z,0.70
2023-04-06T22:25:02.713Z,1.38
2023-04-06T22:27:29.780Z,0.70
2023-04-06T22:29:56.787Z,0.75
2023-04-06T22:32:24.092Z,1.35
2023-04-06T22:34:52.671Z,0.95
2023-04-06T22:37:19.698Z,0.63
2023-04-06T22:39:47.098Z,1.63
2023-04-06T22:42:14.115Z,0.93
2023-04-06T22:44:41.134Z,0.95
2023-04-06T22:47:08.263Z,1.45
2023-04-06T22:49:35.372Z,0.75
2023-04-06T22:52:03.387Z,2.38
2023-04-06T22:54:30.547Z,0.60
2023-04-06T22:56:57.597Z,0.80
2023-04-06T22:59:24.694Z,0.60
2023-04-06T23:01:51.876Z,1.02
2023-04-06T23:04:19.838Z,1.30
2023-04-06T23:06:47.274Z,1.20
2023-04-06T23:09:14.331Z,0.98
2023-04-06T23:11:41.485Z,1.50
2023-04-06T23:14:08.591Z,1.45
2023-04-06T23:16:35.977Z,1.55
2023-04-06T23:19:03.138Z,1.33
2023-04-06T23:21:31.968Z,1.83
2023-04-06T23:24:00.858Z,1.02
2023-04-06T23:26:28.116Z,1.05
2023-04-06T23:28:55.425Z,0.73
2023-04-06T23:31:22.477Z,1.40
2023-04-06T23:33:49.767Z,0.90
2023-04-06T23:36:16.868Z,1.15
2023-04-06T23:38:43.928Z,1.33
2023-04-06T23:41:16.068Z,1.88
2023-04-06T23:43:43.139Z,1.60
2023-04-06T23:46:10.282Z,1.38
2023-04-06T23:48:39.494Z,1.58
2023-04-06T23:51:06.900Z,1.42
2023-04-06T23:53:33.942Z,1.35
2023-04-06T23:56:01.405Z,0.77
2023-04-06T23:58:28.450Z,1.40
